KCOT/COT METAR and TAF weather

Enter ICAO airport designator
Station Type Date Time Source
KCOT METAR 2020/12/05 05:53 UTC NOAA

KCOT 050553Z AUTO 35003KT 10SM CLR 07/02 A3025 RMK AO2 SLP240 T00670017 10128 20061 401670033 51009


Station Type Date Time Source
KCOT Decoded METAR 2020/12/05 05:53 UTC NOAA

COTULLA-LASALLE COUNTY AIRPORT , TX, United States (KCOT) 28-27N 099-13W 140M
Dec 05, 2020 - 12:53 AM EST / 2020.12.05 0553 UTC
Wind: from the N (350 degrees) at 3 MPH (3 KT):0
Visibility: 10 mile(s):0
Sky conditions: clear
Temperature: 44.1 F (6.7 C)
Dew Point: 35.1 F (1.7 C)
Relative Humidity: 70%
Pressure (altimeter): 30.25 in. Hg (1024 hPa)
Pressure tendency: 0.03 inches (0.9 hPa) higher than three hours ago
ob: KCOT 050553Z AUTO 35003KT 10SM CLR 07/02 A3025 RMK AO2 SLP240 T00670017 10128 20061 401670033 51009
cycle: 6

Station Type Date Time Source
KCOT TAF 2020/12/05 06:24 UTC NOAA

TAF KCOT 050523Z 0506/0606 VRB04KT P6SM VCSH FEW100
FM050700 VRB05KT P6SM OVC060
FM052200 03005KT P6SM SCT060
FM060300 35004KT P6SM SKC

Example: see airport list